GMMNGMTA

Guest
Details From GMMN - Casablanca Mohammed V Intl
To GMTA - CHERIF EL IDRISSI
Flight Number -
Tags generated
Created
Modified
Stats Distance 228 nm / 422 km
Max Altitude 29,000 ft / 8,839 m
Waypoints 4
Social Downloads 1
Likes 0
Share VATSIM

Download

Looking for another format? Having issues loading an existing format? Contact us
Advertisement - Login to hide

Notes

Basic altitude profile: - Ascent Rate: 2500ft/min - Ascent Speed: 250kts - Cruise Altitude: 35000ft - Cruise Speed: 420kts - Descent Rate: 1500ft/min - Descent Speed: 250kts Options: - Use NATs: yes - Use PACOTS: yes - Use low airways: yes - Use high airways: yes

Route

GMMN TUSOR UB11 BARIS GMTA

ID Type Via Altitude Latitude Longitude Leg Dist Tot Dist Heading (true) Name
O GMMN APT - 0 ft / 0 m 33.36747˚ -7.58996˚ - 0 nm - Casablanca Mohammed V Intl
TUSOR FIX - 29,000 ft / 8,839 m 34.49722˚ -6.33167˚ 92 nm 92 nm 42° / 43° -
BARIS FIX UB11 (AWY-HI) 23,500 ft / 7,163 m 34.90306˚ -5.93056˚ 31 nm 123 nm 39° / 39° -
O GMTA APT - 0 ft / 0 m 35.17730˚ -3.83956˚ 104 nm 227 nm 80° / 82° CHERIF EL IDRISSI

Altitude Profile

Advertisement - Login to hide

Weather


0- 5 10 15 20 25 30 35+ Temperature / ° C

Clouds and Precipitation
Forecast for 2017-12-16 18:00 UTC. Updated an hour ago

Ground ~20,000 ft ~40,000 ft Winds

GMMN

Details ICAO GMMN (CMN)
Name Casablanca Mohammed V Intl
Region Morocco
Timezone Africa/Casablanca (UTC+0.0)
Stats Elevation 656 ft / 200 m (AMSL)
Location 33.367466° -7.589964°
Runways 2
Magnetic Variation 1.816° W

METAR

GMMN 161830Z 02004KT 360V110 9999 SCT010 BKN016 13/11 Q1021 NOSIG

Decode

TAF

TAF GMMN 161700Z 1618/1724 36005KT 9999 SCT010 BKN016 PROB30 TEMPO 1622/1706 3000 BR BKN006 BECMG 1710/1712 34012KT CAVOK

Decode

Departure Runways

ID Width Length Bearing (true) Bearing (mag) Surface Threshold Offset Overrun Length
17L 148 ft / 45 m 12,224 ft / 3,726 m 164.03° 165.85° Asphalt 0 ft / 0 m 295 ft / 90 m
17R 148 ft / 45 m 12,196 ft / 3,717 m 164.03° 165.85° Asphalt 0 ft / 0 m 197 ft / 60 m
35L 148 ft / 45 m 12,196 ft / 3,717 m 344.04° 345.86° Asphalt 0 ft / 0 m 180 ft / 55 m
35R 148 ft / 45 m 12,224 ft / 3,726 m 344.04° 345.86° Asphalt 0 ft / 0 m 995 ft / 303 m

GMTA

Details ICAO GMTA (AHU)
Name CHERIF EL IDRISSI
Region Morocco
Timezone Africa/Casablanca (UTC+0.0)
Stats Elevation 95 ft / 29 m (AMSL)
Location 35.177296° -3.839555°
Runways 1
Magnetic Variation 0.695° W

METAR

GMTA 161800Z 26004KT 9999 FEW020 BKN040 14/10 Q1020 NOSIG

Decode

TAF

TAF GMTA 161700Z 1618/1724 36004KT 9999 FEW020 BKN040 PROB40 TEMPO 1618/1624 4000 -RA BKN020TCU BECMG 1714/1716 FEW010

Decode

Destination Runways

ID Width Length Bearing (true) Bearing (mag) Surface Threshold Offset Overrun Length
18 148 ft / 45 m 8,234 ft / 2,510 m 172.65° 173.34° Asphalt 0 ft / 0 m 0 ft / 0 m
36 148 ft / 45 m 8,234 ft / 2,510 m 352.65° 353.34° Asphalt 0 ft / 0 m 0 ft / 0 m